Time;durP1;ratioP1;P1;durP2;ratioP2;P2;SDS_P1;SDS_P2;PMS_P1;PMS_P2;Temp;Humidity;BMP_temperature;BMP_pressure;BME280_temperature;BME280_humidity;BME280_pressure;Samples;Min_cycle;Max_cycle;Signal;HPM_P1;HPM_P2
2022/12/27 00:02:03;;;;;;;;;;;;;;;7.51;64.27;100035.66;5084079;28;20424;-56
2022/12/27 00:04:29;;;;;;;;;;;;;;;7.53;64.30;100049.53;5088555;28;19932;-55
2022/12/27 00:06:54;;;;;;;;;;;;;;;7.50;64.64;100059.19;5084284;28;20435;-57
2022/12/27 00:09:20;;;;;;;;;;;;;;;7.48;64.87;100059.22;5085091;28;19969;-56
2022/12/27 00:11:45;;;;;;;;;;;;;;;7.55;65.17;100073.94;5082264;28;20466;-55
2022/12/27 00:14:11;;;;;;;;;;;;;;;7.87;64.74;100070.84;5084233;28;19932;-56
2022/12/27 00:16:37;;;;;;;;;;;;;;;8.05;64.58;100060.97;5080193;28;20015;-56
2022/12/27 00:19:02;;;;;;;;;;;;;;;8.00;64.71;100061.03;5079811;28;20026;-51
2022/12/27 00:21:28;;;;;;;;;;;;;;;8.21;64.35;100059.81;5079767;28;19916;-50
2022/12/27 00:23:54;;;;;;;;;;;;;;;8.18;64.69;100074.69;5078074;28;20417;-52
2022/12/27 00:26:23;;;;;;;;;;;;;;;8.14;64.73;100074.78;5074129;28;19916;-52
2022/12/27 00:28:49;;;;;;;;;;;;;;;8.13;65.27;100073.03;5076503;28;20002;-52
2022/12/27 00:31:15;;;;;;;;;;;;;;;8.13;65.02;100080.88;5087590;28;20019;-54
2022/12/27 00:33:42;;;;;;;;;;;;;;;8.20;65.02;100079.03;5082018;28;20305;-54
2022/12/27 00:36:08;;;;;;;;;;;;;;;8.05;65.35;100080.13;5090869;28;20276;-53
2022/12/27 00:38:34;;;;;;;;;;;;;;;8.15;65.20;100081.72;5082517;28;19927;-55
2022/12/27 00:41:00;;;;;;;;;;;;;;;7.81;65.58;100101.44;5091275;28;19920;-57
2022/12/27 00:43:25;;;;;;;;;;;;;;;7.96;65.35;100101.22;5090228;28;19972;-55
2022/12/27 00:45:50;;;;;;;;;;;;;;;7.85;65.58;100108.34;5091278;28;19920;-55
2022/12/27 00:48:16;;;;;;;;;;;;;;;7.60;66.09;100102.63;5091814;28;19927;-54
2022/12/27 00:50:42;;;;;;;;;;;;;;;7.84;65.53;100104.03;5088870;28;20447;-56
2022/12/27 00:53:08;;;;;;;;;;;;;;;7.69;65.88;100117.31;5074555;28;19921;-54
2022/12/27 00:55:33;;;;;;;;;;;;;;;7.76;65.77;100114.59;5078290;28;19925;-55
2022/12/27 00:57:59;;;;;;;;;;;;;;;7.79;65.60;100105.84;5077515;28;19931;-56
2022/12/27 01:00:24;;;;;;;;;;;;;;;7.83;65.50;100123.22;5080403;28;19927;-54
2022/12/27 01:02:49;;;;;;;;;;;;;;;7.72;65.49;100118.13;5082593;28;19927;-53
2022/12/27 01:05:14;;;;;;;;;;;;;;;7.64;65.58;100122.63;5091653;28;19928;-51
2022/12/27 01:07:40;;;;;;;;;;;;;;;7.34;66.13;100126.47;5093484;28;19932;-55
2022/12/27 01:10:05;;;;;;;;;;;;;;;7.39;66.06;100137.75;5090724;28;19935;-55
2022/12/27 01:12:30;;;;;;;;;;;;;;;7.24;66.32;100130.09;5093181;28;19924;-55
2022/12/27 01:14:56;;;;;;;;;;;;;;;6.94;67.03;100137.38;5086357;28;19943;-56
2022/12/27 01:17:21;;;;;;;;;;;;;;;6.99;66.80;100146.06;5079788;28;19924;-53
2022/12/27 01:19:46;;;;;;;;;;;;;;;6.98;66.72;100141.72;5077689;28;20433;-51
2022/12/27 01:22:12;;;;;;;;;;;;;;;6.85;66.82;100140.09;5078560;28;20023;-55
2022/12/27 01:24:37;;;;;;;;;;;;;;;6.88;66.52;100145.31;5080401;28;19924;-52
2022/12/27 01:27:02;;;;;;;;;;;;;;;6.92;66.47;100152.22;5081922;28;19925;-55
2022/12/27 01:29:28;;;;;;;;;;;;;;;6.85;66.81;100150.56;5079335;28;19924;-53
2022/12/27 01:31:53;;;;;;;;;;;;;;;7.07;66.26;100157.28;5077165;28;20015;-55
2022/12/27 01:34:18;;;;;;;;;;;;;;;7.25;65.73;100164.03;5081946;28;20402;-53
2022/12/27 01:36:44;;;;;;;;;;;;;;;7.26;65.53;100157.06;5086612;28;19969;-54
2022/12/27 01:39:10;;;;;;;;;;;;;;;7.27;65.12;100157.06;5081236;28;19927;-53
2022/12/27 01:44:57;;;;;;;;;;;;;;;7.08;65.39;100161.63;5079737;28;19974;-53
2022/12/27 01:47:34;;;;;;;;;;;;;;;6.91;65.47;100168.78;5084087;28;19920;-53
2022/12/27 01:49:59;;;;;;;;;;;;;;;7.03;65.27;100173.88;5078122;28;19924;-55
2022/12/27 01:52:28;;;;;;;;;;;;;;;7.06;64.99;100178.19;5091512;28;19928;-52
2022/12/27 01:54:56;;;;;;;;;;;;;;;7.08;64.82;100185.16;5080336;28;19970;-55
2022/12/27 01:57:21;;;;;;;;;;;;;;;7.06;64.60;100184.31;5091461;28;19962;-53
2022/12/27 01:59:47;;;;;;;;;;;;;;;7.28;64.08;100178.84;5089482;28;19950;-53
2022/12/27 02:02:12;;;;;;;;;;;;;;;7.31;63.83;100181.44;5089714;28;20307;-54
2022/12/27 02:04:38;;;;;;;;;;;;;;;7.28;63.77;100174.47;5083421;28;19924;-52
2022/12/27 02:07:04;;;;;;;;;;;;;;;7.16;63.80;100174.63;5092346;28;19920;-50
2022/12/27 02:09:39;;;;;;;;;;;;;;;7.22;63.88;100177.19;5088478;28;19924;-51
2022/12/27 02:12:05;;;;;;;;;;;;;;;7.38;63.50;100177.84;5078341;28;20391;-49
2022/12/27 02:14:30;;;;;;;;;;;;;;;7.31;63.60;100174.44;5080436;28;19931;-52
2022/12/27 02:16:56;;;;;;;;;;;;;;;7.18;63.71;100177.19;5091132;28;19920;-51
2022/12/27 02:19:31;;;;;;;;;;;;;;;7.28;63.60;100177.09;5090709;28;20027;-51
2022/12/27 02:22:14;;;;;;;;;;;;;;;7.20;63.40;100171.09;5077655;28;19931;-50
2022/12/27 02:24:45;;;;;;;;;;;;;;;7.11;63.77;100166.84;5076104;28;19928;-51
2022/12/27 02:27:29;;;;;;;;;;;;;;;7.36;63.23;100170.03;5079167;28;19928;-51
2022/12/27 02:29:57;;;;;;;;;;;;;;;7.44;63.12;100175.16;5085852;28;19920;-56
2022/12/27 02:32:43;;;;;;;;;;;;;;;7.60;62.66;100181.94;5090494;28;19952;-51
2022/12/27 02:35:22;;;;;;;;;;;;;;;7.47;62.49;100182.13;5085119;28;19928;-55
2022/12/27 02:37:50;;;;;;;;;;;;;;;7.49;62.33;100178.56;5086275;28;19923;-55
2022/12/27 02:54:34;;;;;;;;;;;;;;;7.05;62.89;100211.28;5077900;28;19943;-53
2022/12/27 02:57:08;;;;;;;;;;;;;;;7.12;62.68;100209.50;5087048;28;20364;-53
2022/12/27 02:59:37;;;;;;;;;;;;;;;6.99;63.17;100208.75;5091347;28;19920;-56
2022/12/27 03:05:21;;;;;;;;;;;;;;;7.01;62.95;100200.91;5076730;28;19928;-55
2022/12/27 03:08:07;;;;;;;;;;;;;;;7.22;62.43;100212.88;5071688;28;19938;-54
2022/12/27 03:16:25;;;;;;;;;;;;;;;7.05;63.14;100223.50;5077030;28;19966;-56
2022/12/27 03:18:59;;;;;;;;;;;;;;;7.22;62.75;100215.47;5076441;28;19992;-53
2022/12/27 03:26:57;;;;;;;;;;;;;;;7.40;62.13;100223.13;5076537;28;20303;-54
2022/12/27 03:35:13;;;;;;;;;;;;;;;7.20;62.57;100243.38;5080488;28;19947;-49
2022/12/27 03:40:33;;;;;;;;;;;;;;;6.90;63.40;100241.06;5076367;28;20335;-52
2022/12/27 03:43:14;;;;;;;;;;;;;;;6.94;63.36;100254.94;5075997;28;19924;-51
2022/12/27 03:48:41;;;;;;;;;;;;;;;6.77;64.20;100259.44;5090778;28;20187;-53
2022/12/27 03:51:07;;;;;;;;;;;;;;;6.81;63.75;100255.94;5086503;28;19920;-51
2022/12/27 03:53:32;;;;;;;;;;;;;;;6.83;63.84;100255.03;5090105;28;19924;-52
2022/12/27 03:55:58;;;;;;;;;;;;;;;6.90;63.17;100255.84;5089703;28;19970;-53
2022/12/27 03:58:23;;;;;;;;;;;;;;;7.04;63.31;100263.56;5087622;28;19929;-50
2022/12/27 04:00:48;;;;;;;;;;;;;;;7.00;63.26;100262.72;5089439;28;19968;-51
2022/12/27 04:03:14;;;;;;;;;;;;;;;7.01;63.29;100258.38;5087426;28;20022;-50
2022/12/27 04:05:39;;;;;;;;;;;;;;;6.82;63.63;100270.72;5090142;28;19920;-51
2022/12/27 04:35:23;;;;;;;;;;;;;;;7.06;63.24;100288.81;5091747;28;19982;-56
2022/12/27 04:37:48;;;;;;;;;;;;;;;7.29;62.94;100290.34;5090747;28;20399;-54
2022/12/27 04:56:38;;;;;;;;;;;;;;;7.83;61.69;100303.72;5087538;28;19931;-53
2022/12/27 05:02:03;;;;;;;;;;;;;;;7.72;61.80;100301.22;5095145;28;20003;-54
2022/12/27 05:04:29;;;;;;;;;;;;;;;7.51;62.16;100302.31;5084202;28;20015;-55
2022/12/27 05:06:55;;;;;;;;;;;;;;;7.55;62.33;100303.16;5078402;28;20015;-55
2022/12/27 05:14:48;;;;;;;;;;;;;;;7.12;63.30;100309.66;5078926;28;20398;-55
2022/12/27 05:17:13;;;;;;;;;;;;;;;7.32;63.22;100319.06;5078901;28;19925;-53
2022/12/27 05:19:38;;;;;;;;;;;;;;;7.49;62.70;100324.13;5077321;28;19920;-54
2022/12/27 05:27:31;;;;;;;;;;;;;;;7.49;62.73;100335.44;5093077;28;19933;-52
2022/12/27 05:29:57;;;;;;;;;;;;;;;7.53;62.48;100337.13;5092473;28;19924;-54
2022/12/27 05:32:22;;;;;;;;;;;;;;;7.46;62.62;100340.72;5082252;28;20291;-54
2022/12/27 05:34:47;;;;;;;;;;;;;;;7.66;62.39;100348.38;5086066;28;19966;-55
2022/12/27 05:37:13;;;;;;;;;;;;;;;7.85;61.81;100344.66;5084834;28;19939;-54
2022/12/27 05:39:38;;;;;;;;;;;;;;;7.85;61.62;100349.03;5081608;28;20007;-50
2022/12/27 05:42:04;;;;;;;;;;;;;;;8.07;61.54;100340.06;5076915;28;19931;-51
2022/12/27 05:44:29;;;;;;;;;;;;;;;8.05;61.13;100340.94;5078990;28;19995;-52
2022/12/27 05:46:54;;;;;;;;;;;;;;;7.90;61.15;100340.25;5077355;28;19925;-50
2022/12/27 05:49:20;;;;;;;;;;;;;;;7.93;61.22;100333.25;5082582;28;19916;-49
2022/12/27 05:51:45;;;;;;;;;;;;;;;7.70;61.73;100330.88;5078299;28;20068;-50
2022/12/27 05:54:10;;;;;;;;;;;;;;;7.76;61.61;100341.28;5079052;28;19924;-50
2022/12/27 05:56:36;;;;;;;;;;;;;;;7.78;61.75;100342.13;5078144;28;19931;-50
2022/12/27 05:59:01;;;;;;;;;;;;;;;7.72;61.67;100347.44;5076075;28;19917;-51
2022/12/27 06:01:27;;;;;;;;;;;;;;;7.63;61.67;100345.78;5078326;28;19924;-54
2022/12/27 06:03:52;;;;;;;;;;;;;;;7.27;62.80;100349.59;5076746;28;19969;-53
2022/12/27 06:06:17;;;;;;;;;;;;;;;7.68;62.10;100343.97;5079063;28;19928;-50
2022/12/27 06:08:43;;;;;;;;;;;;;;;7.68;61.62;100346.59;5085564;28;20003;-55
2022/12/27 06:11:08;;;;;;;;;;;;;;;7.46;62.34;100345.94;5090157;28;20298;-55
2022/12/27 06:13:34;;;;;;;;;;;;;;;7.60;62.29;100353.66;5091777;28;20302;-54
2022/12/27 06:16:00;;;;;;;;;;;;;;;7.68;62.05;100345.72;5091335;28;21213;-53
2022/12/27 06:18:25;;;;;;;;;;;;;;;7.47;62.56;100345.06;5085870;28;19965;-54
2022/12/27 06:20:50;;;;;;;;;;;;;;;7.65;62.06;100347.47;5077832;28;20304;-55
2022/12/27 06:23:16;;;;;;;;;;;;;;;7.62;61.81;100346.63;5077945;28;19935;-54
2022/12/27 06:25:41;;;;;;;;;;;;;;;7.86;61.77;100353.41;5083845;28;19988;-53
2022/12/27 06:28:06;;;;;;;;;;;;;;;7.90;61.39;100357.72;5076624;28;19939;-56
2022/12/27 06:30:32;;;;;;;;;;;;;;;7.96;61.19;100352.38;5090745;28;20019;-54
2022/12/27 06:32:57;;;;;;;;;;;;;;;7.94;61.27;100359.41;5080202;28;20330;-54
2022/12/27 06:35:22;;;;;;;;;;;;;;;7.92;61.16;100358.53;5077152;28;20011;-53
2022/12/27 06:37:47;;;;;;;;;;;;;;;7.92;60.92;100362.91;5077230;28;19947;-54
2022/12/27 06:40:13;;;;;;;;;;;;;;;7.98;61.00;100371.56;5105487;28;19924;-53
2022/12/27 06:42:38;;;;;;;;;;;;;;;8.00;60.80;100369.78;5075081;28;19925;-54
2022/12/27 06:45:05;;;;;;;;;;;;;;;7.90;60.92;100376.03;5088631;28;20402;-52
2022/12/27 06:47:30;;;;;;;;;;;;;;;7.89;61.05;100388.22;5089729;28;20280;-56
2022/12/27 06:49:56;;;;;;;;;;;;;;;7.77;61.11;100387.47;5087507;28;19925;-54
2022/12/27 06:52:22;;;;;;;;;;;;;;;7.54;61.72;100385.06;5091301;28;20019;-55
2022/12/27 06:54:47;;;;;;;;;;;;;;;7.88;61.14;100394.31;5079831;28;19947;-53
2022/12/27 06:57:12;;;;;;;;;;;;;;;7.77;61.17;100397.94;5080223;28;20300;-54
2022/12/27 06:59:38;;;;;;;;;;;;;;;7.90;61.00;100394.34;5088627;28;20350;-53
2022/12/27 07:02:03;;;;;;;;;;;;;;;7.90;60.88;100394.34;5089943;28;19927;-51
2022/12/27 07:04:28;;;;;;;;;;;;;;;7.69;60.88;100399.75;5078614;28;19932;-55
2022/12/27 07:06:53;;;;;;;;;;;;;;;7.70;60.99;100407.59;5079067;28;20257;-55
2022/12/27 07:09:19;;;;;;;;;;;;;;;7.89;60.85;100403.03;5077478;28;20016;-54
2022/12/27 07:11:44;;;;;;;;;;;;;;;7.90;60.97;100407.41;5084074;28;19949;-56
2022/12/27 07:14:09;;;;;;;;;;;;;;;7.91;60.34;100409.13;5083958;28;19931;-56
2022/12/27 07:16:35;;;;;;;;;;;;;;;7.79;60.71;100410.13;5078832;28;19951;-55
2022/12/27 07:19:00;;;;;;;;;;;;;;;8.00;60.27;100419.50;5081177;28;19955;-55
2022/12/27 07:21:26;;;;;;;;;;;;;;;7.80;60.10;100427.56;5082181;28;20015;-57
2022/12/27 07:23:52;;;;;;;;;;;;;;;7.87;60.04;100430.97;5085710;28;19920;-54
2022/12/27 07:26:22;;;;;;;;;;;;;;;7.88;60.25;100427.47;5077266;28;19931;-55
2022/12/27 07:28:47;;;;;;;;;;;;;;;7.75;60.45;100431.09;5090206;28;19923;-56
2022/12/27 07:31:14;;;;;;;;;;;;;;;7.83;60.13;100424.91;5084029;28;19924;-56
2022/12/27 07:33:40;;;;;;;;;;;;;;;7.77;59.94;100426.72;5093213;28;20009;-53
2022/12/27 07:36:07;;;;;;;;;;;;;;;7.82;59.95;100435.38;5089404;28;20375;-54
2022/12/27 07:38:33;;;;;;;;;;;;;;;7.74;59.61;100447.66;5087168;28;19920;-52
2022/12/27 07:40:58;;;;;;;;;;;;;;;7.81;59.63;100444.09;5090866;28;20268;-55
2022/12/27 07:43:24;;;;;;;;;;;;;;;7.90;59.37;100451.88;5078484;28;19925;-55
2022/12/27 07:45:49;;;;;;;;;;;;;;;7.92;58.92;100446.63;5090418;28;19920;-55
2022/12/27 07:48:15;;;;;;;;;;;;;;;7.76;59.14;100449.38;5097861;28;20007;-51
2022/12/27 07:50:40;;;;;;;;;;;;;;;7.81;59.10;100449.34;5079124;28;20292;-56
2022/12/27 07:53:05;;;;;;;;;;;;;;;7.98;58.87;100439.59;5073331;28;19927;-54
2022/12/27 07:55:31;;;;;;;;;;;;;;;7.95;58.94;100449.22;5102349;28;19924;-55
2022/12/27 07:57:56;;;;;;;;;;;;;;;7.77;59.35;100429.31;5078618;28;20248;-56
2022/12/27 08:00:22;;;;;;;;;;;;;;;7.87;59.67;100431.84;5079030;28;20338;-58
2022/12/27 08:02:47;;;;;;;;;;;;;;;8.00;58.95;100437.81;5081663;28;19924;-55
2022/12/27 08:05:12;;;;;;;;;;;;;;;7.88;59.21;100448.41;5078519;28;20335;-57
2022/12/27 08:07:39;;;;;;;;;;;;;;;7.69;59.45;100450.31;5083492;28;20080;-53
2022/12/27 08:10:04;;;;;;;;;;;;;;;7.51;60.25;100443.50;5075655;28;19924;-56
2022/12/27 08:12:29;;;;;;;;;;;;;;;7.80;59.66;100450.22;5077512;28;19925;-55
2022/12/27 08:14:55;;;;;;;;;;;;;;;7.86;59.39;100448.44;5088515;28;20010;-54
2022/12/27 08:17:22;;;;;;;;;;;;;;;7.98;59.17;100452.69;5086574;28;20375;-56
2022/12/27 08:19:50;;;;;;;;;;;;;;;7.74;59.62;100445.03;5087702;28;19966;-55
2022/12/27 08:22:15;;;;;;;;;;;;;;;7.82;59.32;100458.91;5075256;28;19920;-53
2022/12/27 08:24:41;;;;;;;;;;;;;;;8.12;59.01;100458.63;5081033;28;19939;-56
2022/12/27 08:27:07;;;;;;;;;;;;;;;8.23;58.66;100460.28;5089903;28;20414;-55
2022/12/27 08:29:32;;;;;;;;;;;;;;;7.88;59.36;100458.88;5087512;28;19931;-54
2022/12/27 08:31:57;;;;;;;;;;;;;;;7.81;59.40;100458.03;5082776;28;20019;-56
2022/12/27 08:34:23;;;;;;;;;;;;;;;7.76;59.96;100464.22;5075570;28;19964;-55
2022/12/27 08:36:51;;;;;;;;;;;;;;;7.82;59.57;100464.16;5075059;28;20367;-55
2022/12/27 08:39:17;;;;;;;;;;;;;;;8.02;59.33;100462.22;5076638;28;19989;-55
2022/12/27 08:41:42;;;;;;;;;;;;;;;7.81;59.48;100465.91;5077892;28;19924;-58
2022/12/27 08:44:08;;;;;;;;;;;;;;;7.38;60.15;100463.66;5076049;28;20296;-53
2022/12/27 08:46:33;;;;;;;;;;;;;;;7.53;59.78;100461.78;5079673;28;19920;-56
2022/12/27 08:48:59;;;;;;;;;;;;;;;7.63;59.23;100463.47;5077015;28;19928;-56
2022/12/27 08:51:24;;;;;;;;;;;;;;;7.84;58.94;100459.78;5087242;28;19947;-55
2022/12/27 08:53:50;;;;;;;;;;;;;;;7.78;58.77;100454.59;5088519;28;20461;-54
2022/12/27 08:56:15;;;;;;;;;;;;;;;8.01;58.26;100455.25;5089862;28;19924;-54
2022/12/27 08:58:40;;;;;;;;;;;;;;;8.04;58.27;100465.69;5088285;28;19933;-55
2022/12/27 09:01:06;;;;;;;;;;;;;;;8.10;58.11;100460.41;5075353;28;20076;-53
2022/12/27 09:03:32;;;;;;;;;;;;;;;8.18;58.07;100462.94;5081368;28;20276;-56
2022/12/27 09:06:11;;;;;;;;;;;;;;;8.22;57.94;100474.22;5079865;28;20402;-55
2022/12/27 09:08:37;;;;;;;;;;;;;;;8.28;57.55;100471.56;5080217;28;19927;-56
2022/12/27 09:11:06;;;;;;;;;;;;;;;8.45;57.55;100471.38;5084482;28;19921;-55
2022/12/27 09:13:31;;;;;;;;;;;;;;;8.40;57.63;100471.44;5074141;28;19940;-56
2022/12/27 09:15:57;;;;;;;;;;;;;;;8.08;58.11;100471.75;5090564;28;20406;-55
2022/12/27 09:18:22;;;;;;;;;;;;;;;8.03;58.22;100476.19;5093072;28;19930;-55
2022/12/27 09:20:47;;;;;;;;;;;;;;;8.11;58.16;100479.59;5090537;28;19993;-55
2022/12/27 09:23:13;;;;;;;;;;;;;;;7.57;59.19;100474.81;5091130;28;19931;-53
2022/12/27 09:25:38;;;;;;;;;;;;;;;7.98;58.56;100473.63;5090533;28;19932;-57
2022/12/27 09:28:03;;;;;;;;;;;;;;;7.88;58.89;100478.03;5092266;28;19924;-52
2022/12/27 09:30:29;;;;;;;;;;;;;;;8.22;58.84;100474.22;5081976;28;19932;-53
2022/12/27 09:32:54;;;;;;;;;;;;;;;7.83;58.71;100466.75;5084232;28;19924;-55
2022/12/27 09:35:19;;;;;;;;;;;;;;;7.87;58.71;100478.06;5077223;28;19928;-56
2022/12/27 09:37:44;;;;;;;;;;;;;;;8.03;58.82;100492.75;5079514;28;19927;-55
2022/12/27 09:40:13;;;;;;;;;;;;;;;7.85;59.25;100485.06;5077805;28;19935;-56
2022/12/27 09:42:47;;;;;;;;;;;;;;;8.09;58.98;100490.06;5081710;28;19928;-57
2022/12/27 09:45:13;;;;;;;;;;;;;;;8.09;58.65;100490.06;5081684;28;19931;-57
2022/12/27 09:47:38;;;;;;;;;;;;;;;7.79;59.20;100485.13;5074510;28;19916;-57
2022/12/27 09:50:05;;;;;;;;;;;;;;;8.05;58.79;100498.81;5082693;28;19916;-55
2022/12/27 09:52:36;;;;;;;;;;;;;;;7.89;59.28;100484.13;5086970;28;20008;-55
2022/12/27 09:55:11;;;;;;;;;;;;;;;8.21;58.44;100477.72;5081830;28;20046;-56
2022/12/27 09:57:39;;;;;;;;;;;;;;;8.15;58.52;100478.66;5078159;28;19921;-56
2022/12/27 10:00:24;;;;;;;;;;;;;;;8.05;58.52;100488.34;5085492;28;19920;-57
2022/12/27 10:02:50;;;;;;;;;;;;;;;7.91;59.26;100490.25;5089863;28;19950;-57
2022/12/27 10:05:23;;;;;;;;;;;;;;;8.21;58.73;100488.19;5078007;28;20443;-54
2022/12/27 10:08:08;;;;;;;;;;;;;;;8.23;58.53;100487.31;5089266;28;19973;-56
2022/12/27 10:11:00;;;;;;;;;;;;;;;7.88;59.23;100492.88;5075329;28;20379;-55
2022/12/27 10:13:37;;;;;;;;;;;;;;;8.22;58.50;100489.94;5088979;28;20376;-55
2022/12/27 10:16:11;;;;;;;;;;;;;;;8.28;58.24;100484.66;5077594;28;20331;-55
2022/12/27 10:18:39;;;;;;;;;;;;;;;7.93;58.49;100490.22;5084786;28;20409;-53
2022/12/27 10:21:34;;;;;;;;;;;;;;;8.06;58.37;100484.00;5077745;28;19970;-56
2022/12/27 10:24:04;;;;;;;;;;;;;;;7.98;58.35;100488.41;5071766;28;19920;-55
2022/12/27 10:26:29;;;;;;;;;;;;;;;8.02;57.88;100498.88;5078329;28;19920;-55
2022/12/27 10:29:00;;;;;;;;;;;;;;;8.05;58.08;100497.94;5077697;28;19924;-54
2022/12/27 10:31:25;;;;;;;;;;;;;;;7.81;58.46;100499.91;5077007;28;19916;-55
2022/12/27 10:33:51;;;;;;;;;;;;;;;7.58;58.80;100492.25;5078001;28;19925;-55
2022/12/27 10:36:19;;;;;;;;;;;;;;;8.01;58.03;100494.50;5076250;28;19924;-55
2022/12/27 10:38:45;;;;;;;;;;;;;;;8.06;57.42;100497.97;5077783;28;20371;-55
2022/12/27 10:41:25;;;;;;;;;;;;;;;7.99;57.95;100498.88;5080258;28;19920;-55
2022/12/27 10:43:51;;;;;;;;;;;;;;;7.96;57.40;100479.72;5091199;28;19966;-55
2022/12/27 10:46:31;;;;;;;;;;;;;;;7.94;57.23;100473.63;5092131;28;19954;-55
2022/12/27 10:49:01;;;;;;;;;;;;;;;7.55;57.89;100479.22;5079697;28;20291;-55
2022/12/27 10:51:32;;;;;;;;;;;;;;;8.03;57.39;100479.66;5078293;28;20253;-54
2022/12/27 10:54:02;;;;;;;;;;;;;;;8.31;56.95;100489.84;5081726;28;19929;-55
2022/12/27 10:56:31;;;;;;;;;;;;;;;8.03;57.27;100487.50;5077616;28;20015;-56
2022/12/27 10:59:05;;;;;;;;;;;;;;;7.72;57.98;100496.50;5082324;28;19984;-56
2022/12/27 11:01:32;;;;;;;;;;;;;;;7.70;58.13;100493.91;5077721;28;20299;-54
2022/12/27 11:04:07;;;;;;;;;;;;;;;7.33;59.18;100503.75;5076959;28;19927;-54
2022/12/27 11:06:32;;;;;;;;;;;;;;;7.74;58.28;100502.56;5076152;28;19955;-53
2022/12/27 11:09:16;;;;;;;;;;;;;;;7.42;58.85;100501.09;5086058;28;19920;-57
2022/12/27 11:11:41;;;;;;;;;;;;;;;7.48;59.43;100511.50;5077932;28;19916;-55
2022/12/27 11:14:10;;;;;;;;;;;;;;;7.54;58.92;100511.47;5080113;28;20015;-56
2022/12/27 11:16:36;;;;;;;;;;;;;;;7.45;59.65;100511.50;5090467;28;19924;-51
2022/12/27 11:19:02;;;;;;;;;;;;;;;7.74;58.97;100513.94;5102084;28;20308;-52
2022/12/27 11:21:28;;;;;;;;;;;;;;;7.54;58.79;100510.56;5086431;28;20375;-54
2022/12/27 11:23:58;;;;;;;;;;;;;;;7.56;59.35;100516.69;5079399;28;20007;-54
2022/12/27 11:26:26;;;;;;;;;;;;;;;7.72;58.93;100499.13;5082313;28;19916;-56
2022/12/27 11:28:56;;;;;;;;;;;;;;;7.12;59.82;100521.31;5080244;28;19935;-56
2022/12/27 11:31:30;;;;;;;;;;;;;;;7.31;59.75;100508.13;5078225;28;19939;-56
2022/12/27 11:33:58;;;;;;;;;;;;;;;7.35;59.48;100495.03;5089477;28;19920;-56
2022/12/27 11:36:28;;;;;;;;;;;;;;;7.63;58.84;100506.16;5080169;28;19997;-55
2022/12/27 11:38:53;;;;;;;;;;;;;;;7.36;59.46;100507.22;5076087;28;19920;-55
2022/12/27 11:41:22;;;;;;;;;;;;;;;7.27;59.35;100522.09;5089391;28;19916;-55
2022/12/27 11:44:03;;;;;;;;;;;;;;;7.49;59.40;100508.00;5089099;28;19924;-55
2022/12/27 11:46:47;;;;;;;;;;;;;;;7.38;59.54;100509.81;5089628;28;19923;-53
2022/12/27 11:49:17;;;;;;;;;;;;;;;7.68;58.68;100502.66;5075979;28;19921;-55
2022/12/27 11:51:43;;;;;;;;;;;;;;;7.85;58.80;100511.22;5082761;28;19932;-54
2022/12/27 11:54:20;;;;;;;;;;;;;;;8.04;58.00;100509.31;5080592;28;20292;-56
2022/12/27 11:56:56;;;;;;;;;;;;;;;8.11;58.15;100519.72;5088782;28;20434;-54
2022/12/27 11:59:29;;;;;;;;;;;;;;;7.88;58.35;100526.88;5087873;28;19920;-51
2022/12/27 12:02:13;;;;;;;;;;;;;;;7.87;58.91;100533.00;5080109;28;19924;-56
2022/12/27 12:04:41;;;;;;;;;;;;;;;8.05;58.15;100521.50;5073949;28;19916;-54
2022/12/27 12:07:07;;;;;;;;;;;;;;;7.99;58.73;100522.44;5073769;28;20342;-56
2022/12/27 12:09:47;;;;;;;;;;;;;;;8.28;57.94;100518.69;5073782;28;19916;-56
2022/12/27 12:12:18;;;;;;;;;;;;;;;8.12;57.77;100518.81;5078781;28;19928;-56
2022/12/27 12:14:43;;;;;;;;;;;;;;;8.22;58.06;100516.09;5113438;28;19916;-54
2022/12/27 12:17:21;;;;;;;;;;;;;;;8.18;57.75;100520.53;5111031;28;19922;-56
2022/12/27 12:19:58;;;;;;;;;;;;;;;7.97;58.33;100505.88;5073021;28;19917;-57
2022/12/27 12:22:24;;;;;;;;;;;;;;;8.22;57.63;100510.88;5092579;28;19958;-54
2022/12/27 12:24:59;;;;;;;;;;;;;;;8.02;58.46;100513.69;5093886;28;19920;-55
2022/12/27 12:27:43;;;;;;;;;;;;;;;8.27;57.67;100506.47;5085993;28;20437;-54
2022/12/27 12:30:21;;;;;;;;;;;;;;;7.88;58.66;100526.88;5090694;28;19920;-55
2022/12/27 12:32:52;;;;;;;;;;;;;;;8.07;58.06;100525.00;5092791;28;20398;-54
2022/12/27 12:35:30;;;;;;;;;;;;;;;7.99;57.81;100513.72;5093863;28;19924;-55
2022/12/27 12:38:03;;;;;;;;;;;;;;;7.82;58.65;100530.44;5090788;28;19920;-54
2022/12/27 12:40:34;;;;;;;;;;;;;;;8.26;57.93;100530.91;5093732;28;19955;-52
2022/12/27 12:42:59;;;;;;;;;;;;;;;8.33;57.72;100530.81;5093843;28;19923;-55
2022/12/27 12:45:41;;;;;;;;;;;;;;;8.18;57.86;100535.34;5093605;28;19916;-56
2022/12/27 12:48:12;;;;;;;;;;;;;;;8.07;58.33;100536.31;5093920;28;19917;-56
2022/12/27 12:50:57;;;;;;;;;;;;;;;7.98;58.53;100546.88;5097469;28;19920;-58
2022/12/27 12:53:28;;;;;;;;;;;;;;;7.69;58.87;100552.31;5097659;28;19916;-56
2022/12/27 12:56:08;;;;;;;;;;;;;;;7.78;58.91;100552.28;5097587;28;19927;-56
2022/12/27 12:58:40;;;;;;;;;;;;;;;8.01;58.70;100545.97;5097548;28;19935;-57
2022/12/27 13:01:09;;;;;;;;;;;;;;;7.78;59.11;100549.66;5096491;28;20003;-55
2022/12/27 13:03:46;;;;;;;;;;;;;;;7.47;59.82;100556.84;5097403;28;19952;-52
2022/12/27 13:06:16;;;;;;;;;;;;;;;7.40;60.39;100540.31;5096976;28;19924;-53
2022/12/27 13:08:46;;;;;;;;;;;;;;;7.35;60.82;100551.69;5080614;28;19923;-55
2022/12/27 13:11:29;;;;;;;;;;;;;;;7.20;62.03;100559.59;5083418;28;20021;-51
2022/12/27 13:13:55;;;;;;;;;;;;;;;7.35;62.11;100559.53;5077369;28;20005;-55
2022/12/27 13:16:26;;;;;;;;;;;;;;;7.59;61.61;100554.13;5077631;28;19956;-53
2022/12/27 13:18:57;;;;;;;;;;;;;;;7.52;61.38;100549.81;5075836;28;19985;-56
2022/12/27 13:21:38;;;;;;;;;;;;;;;7.31;61.86;100555.19;5076682;28;19920;-53
2022/12/27 13:24:13;;;;;;;;;;;;;;;7.06;62.55;100555.31;5076723;28;19916;-56
2022/12/27 13:26:53;;;;;;;;;;;;;;;6.62;63.66;100579.84;5076603;28;19921;-54
2022/12/27 13:29:45;;;;;;;;;;;;;;;6.92;63.18;100570.16;5076509;28;19923;-54
2022/12/27 13:32:10;;;;;;;;;;;;;;;6.96;63.14;100566.66;5076070;28;19920;-56
2022/12/27 13:34:59;;;;;;;;;;;;;;;7.15;62.77;100559.63;5075139;28;20430;-52
2022/12/27 13:37:43;;;;;;;;;;;;;;;6.94;63.00;100562.31;5064716;28;20015;-54
2022/12/27 13:40:27;;;;;;;;;;;;;;;6.50;64.20;100572.00;5078454;28;20397;-54
2022/12/27 13:42:53;;;;;;;;;;;;;;;6.68;63.84;100583.31;5096354;28;19927;-51
2022/12/27 13:45:24;;;;;;;;;;;;;;;6.93;63.13;100574.50;5096584;28;19916;-53
2022/12/27 13:48:07;;;;;;;;;;;;;;;6.80;63.57;100580.66;5096441;28;20392;-54
2022/12/27 13:50:33;;;;;;;;;;;;;;;6.75;63.51;100592.88;5096604;28;19916;-52
2022/12/27 13:53:20;;;;;;;;;;;;;;;6.89;63.04;100578.88;5096621;28;20049;-55
2022/12/27 13:55:48;;;;;;;;;;;;;;;6.39;64.33;100595.53;5094774;28;20283;-54
2022/12/27 13:58:32;;;;;;;;;;;;;;;6.76;63.65;100592.00;5096382;28;19924;-55
2022/12/27 14:01:07;;;;;;;;;;;;;;;6.75;63.61;100579.81;5095707;28;19947;-54
2022/12/27 14:03:42;;;;;;;;;;;;;;;6.49;64.10;100585.06;5095934;28;19916;-55
2022/12/27 14:06:28;;;;;;;;;;;;;;;6.59;64.08;100598.13;5094849;28;19920;-55
2022/12/27 14:09:09;;;;;;;;;;;;;;;6.66;64.05;100601.56;5094816;28;19977;-52
2022/12/27 14:11:46;;;;;;;;;;;;;;;6.47;64.55;100592.91;5085937;28;20010;-56
2022/12/27 14:14:15;;;;;;;;;;;;;;;6.41;64.75;100605.97;5079148;28;19927;-56
2022/12/27 14:16:46;;;;;;;;;;;;;;;6.43;64.64;100613.81;5087271;28;20339;-55
2022/12/27 14:19:21;;;;;;;;;;;;;;;6.45;64.57;100606.84;5091968;28;19998;-54
2022/12/27 14:21:58;;;;;;;;;;;;;;;6.60;63.77;100610.28;5091217;28;19923;-55
2022/12/27 14:24:42;;;;;;;;;;;;;;;6.30;64.97;100615.53;5077681;28;19920;-56
2022/12/27 14:27:23;;;;;;;;;;;;;;;6.16;65.21;100632.06;5086874;28;20007;-55
2022/12/27 14:30:07;;;;;;;;;;;;;;;6.25;64.90;100625.97;5076360;28;20002;-55
2022/12/27 14:32:35;;;;;;;;;;;;;;;6.19;65.23;100630.34;5075999;28;19986;-55
2022/12/27 14:35:19;;;;;;;;;;;;;;;6.07;65.70;100624.25;5077212;28;19924;-54
2022/12/27 14:37:59;;;;;;;;;;;;;;;6.05;65.67;100631.19;5077350;28;19920;-58
2022/12/27 14:40:27;;;;;;;;;;;;;;;6.11;65.97;100644.25;5077579;28;19928;-54